Time;durP1;ratioP1;P1;durP2;ratioP2;P2;SDS_P1;SDS_P2;PMS_P1;PMS_P2;Temp;Humidity;BMP_temperature;BMP_pressure;BME280_temperature;BME280_humidity;BME280_pressure;Samples;Min_cycle;Max_cycle;Signal;HPM_P1;HPM_P2
2022/08/04 00:01:36;;;;;;;37.67;19.50;;;;;;;;;;5008412;28;20065;-73
2022/08/04 00:04:23;;;;;;;;;;;;;;;;;;5008914;28;20045;-74
2022/08/04 00:07:04;;;;;;;46.22;20.35;;;;;;;;;;5008193;28;19928;-72
2022/08/04 00:09:49;;;;;;;38.83;20.00;;;;;;;;;;5008278;28;20061;-74
2022/08/04 00:12:24;;;;;;;49.25;21.63;;;;;;;;;;5008226;28;20057;-72
2022/08/04 00:15:01;;;;;;;45.72;21.88;;;;;;;;;;5007850;28;20046;-73
2022/08/04 00:17:45;;;;;;;44.78;22.17;;;;;;;;;;4989757;28;20611;-74
2022/08/04 00:20:19;;;;;;;40.30;21.63;;;;;;;;;;5007773;28;20046;-73
2022/08/04 00:22:51;;;;;;;49.65;23.02;;;;;;;;;;5007472;28;20050;-74
2022/08/04 00:25:22;;;;;;;40.80;21.67;;;;;;;;;;5007833;28;20524;-74
2022/08/04 00:27:52;;;;;;;43.55;21.85;;;;;;;;;;5007653;28;20053;-73
2022/08/04 00:30:22;;;;;;;50.58;24.55;;;;;;;;;;5007124;28;20124;-73
2022/08/04 00:32:54;;;;;;;48.35;23.40;;;;;;;;;;5007541;28;20050;-73
2022/08/04 00:35:27;;;;;;;50.75;24.92;;;;;;;;;;5006974;28;20061;-73
2022/08/04 00:37:58;;;;;;;52.15;22.88;;;;;;;;;;5007227;28;20054;-73
2022/08/04 00:40:46;;;;;;;49.45;23.40;;;;;;;;;;5007693;28;20061;-73
2022/08/04 00:43:23;;;;;;;;;;;;;;;;;;5007259;28;20053;-72
2022/08/04 00:46:15;;;;;;;44.47;22.25;;;;;;;;;;5007716;28;20308;-72
2022/08/04 00:49:17;;;;;;;51.55;23.55;;;;;;;;;;5007116;28;20052;-72
2022/08/04 00:51:58;;;;;;;49.58;25.58;;;;;;;;;;5004875;28;20061;-73
2022/08/04 00:54:58;;;;;;;49.72;24.20;;;;;;;;;;5007394;28;20058;-73
2022/08/04 00:58:00;;;;;;;60.22;31.52;;;;;;;;;;5007138;28;20049;-71
2022/08/04 01:00:41;;;;;;;;;;;;;;;;;;5007998;28;20045;-74
2022/08/04 01:03:26;;;;;;;48.33;24.02;;;;;;;;;;5006582;28;20377;-73
2022/08/04 01:06:25;;;;;;;49.05;23.88;;;;;;;;;;5007212;28;20417;-74
2022/08/04 01:09:02;;;;;;;48.75;24.40;;;;;;;;;;5007277;28;20069;-73
2022/08/04 01:12:00;;;;;;;55.42;24.42;;;;;;;;;;4989400;28;20053;-73
2022/08/04 01:14:33;;;;;;;49.42;22.80;;;;;;;;;;5008209;28;20046;-73
2022/08/04 01:17:24;;;;;;;52.33;24.75;;;;;;;;;;5006868;28;20164;-73
2022/08/04 01:20:08;;;;;;;56.75;25.80;;;;;;;;;;4987616;28;20057;-73
2022/08/04 01:23:11;;;;;;;46.65;22.48;;;;;;;;;;5004432;28;20057;-73
2022/08/04 01:26:02;;;;;;;53.03;25.05;;;;;;;;;;5004995;28;20042;-73
2022/08/04 01:29:09;;;;;;;55.90;26.00;;;;;;;;;;5005251;28;20056;-73
2022/08/04 01:31:53;;;;;;;49.95;22.73;;;;;;;;;;5005787;28;20046;-73
2022/08/04 01:34:28;;;;;;;48.22;23.38;;;;;;;;;;5005811;28;20069;-73
2022/08/04 01:37:11;;;;;;;46.42;24.52;;;;;;;;;;5007333;28;20050;-73
2022/08/04 01:39:49;;;;;;;53.95;25.23;;;;;;;;;;5007534;28;20049;-73
2022/08/04 01:42:21;;;;;;;48.55;24.13;;;;;;;;;;5007093;28;20371;-73
2022/08/04 01:45:05;;;;;;;53.33;25.27;;;;;;;;;;5007216;28;20050;-73
2022/08/04 01:47:37;;;;;;;54.17;25.30;;;;;;;;;;5006695;28;20046;-73
2022/08/04 01:50:10;;;;;;;51.80;24.73;;;;;;;;;;5006829;28;20054;-73
2022/08/04 01:52:42;;;;;;;47.53;21.38;;;;;;;;;;5008629;28;20061;-73
2022/08/04 01:55:19;;;;;;;50.70;23.42;;;;;;;;;;5011254;28;20050;-73
2022/08/04 01:57:51;;;;;;;57.17;25.63;;;;;;;;;;5010613;28;20052;-73
2022/08/04 02:00:26;;;;;;;54.55;23.70;;;;;;;;;;5011405;28;20046;-73
2022/08/04 02:02:57;;;;;;;50.33;23.80;;;;;;;;;;5011023;28;20038;-73
2022/08/04 02:05:27;;;;;;;45.22;23.40;;;;;;;;;;5011142;28;20052;-73
2022/08/04 02:08:28;;;;;;;48.90;24.58;;;;;;;;;;5010631;28;20042;-73
2022/08/04 02:11:00;;;;;;;47.67;23.52;;;;;;;;;;5010074;28;20062;-73
2022/08/04 02:13:49;;;;;;;49.80;22.85;;;;;;;;;;5009755;28;20072;-73
2022/08/04 02:16:24;;;;;;;54.33;24.13;;;;;;;;;;5010724;28;20038;-73
2022/08/04 02:19:15;;;;;;;47.35;23.38;;;;;;;;;;4992898;28;20050;-73
2022/08/04 02:21:51;;;;;;;48.60;23.88;;;;;;;;;;5010787;28;20414;-73
2022/08/04 02:24:25;;;;;;;49.53;23.48;;;;;;;;;;5010496;28;20398;-73
2022/08/04 02:26:56;;;;;;;55.47;23.80;;;;;;;;;;5009938;28;20050;-73
2022/08/04 02:30:04;;;;;;;52.45;24.42;;;;;;;;;;5010373;28;20054;-73
2022/08/04 02:32:40;;;;;;;47.88;23.73;;;;;;;;;;5002284;28;20517;-73
2022/08/04 02:35:25;;;;;;;54.50;24.48;;;;;;;;;;5010161;28;20082;-73
2022/08/04 02:38:29;;;;;;;50.55;23.80;;;;;;;;;;5008859;28;20395;-73
2022/08/04 02:41:01;;;;;;;51.15;23.90;;;;;;;;;;5010181;28;20050;-73
2022/08/04 02:43:34;;;;;;;44.78;22.67;;;;;;;;;;5010333;28;20042;-73
2022/08/04 02:46:22;;;;;;;43.95;23.42;;;;;;;;;;5010277;28;20041;-73
2022/08/04 02:48:53;;;;;;;50.55;23.60;;;;;;;;;;5010276;28;20049;-73
2022/08/04 02:51:29;;;;;;;61.35;24.50;;;;;;;;;;5009698;28;20050;-73
2022/08/04 02:54:01;;;;;;;52.10;25.13;;;;;;;;;;5009504;28;20061;-73
2022/08/04 02:56:34;;;;;;;60.67;26.50;;;;;;;;;;5009866;28;20501;-73
2022/08/04 02:59:11;;;;;;;56.30;26.60;;;;;;;;;;5009230;28;20085;-73
2022/08/04 03:01:41;;;;;;;59.35;26.48;;;;;;;;;;5009498;28;20504;-73
2022/08/04 03:04:55;;;;;;;62.03;24.95;;;;;;;;;;5009149;28;20049;-73
2022/08/04 03:07:42;;;;;;;68.80;27.67;;;;;;;;;;5009576;28;20042;-73
2022/08/04 03:10:12;;;;;;;68.90;29.08;;;;;;;;;;5009786;28;20049;-73
2022/08/04 03:13:09;;;;;;;62.67;27.67;;;;;;;;;;4992267;28;20049;-73
2022/08/04 03:16:00;;;;;;;68.30;27.88;;;;;;;;;;5010858;28;20508;-73
2022/08/04 03:18:59;;;;;;;73.05;29.55;;;;;;;;;;5010499;28;20052;-73
2022/08/04 03:22:17;;;;;;;70.68;28.00;;;;;;;;;;5009634;28;20045;-73
2022/08/04 03:24:47;;;;;;;74.95;27.67;;;;;;;;;;5008980;28;20052;-73
2022/08/04 03:27:48;;;;;;;77.35;30.83;;;;;;;;;;5009351;28;20053;-73
2022/08/04 03:30:36;;;;;;;74.82;29.55;;;;;;;;;;5009330;28;20531;-73
2022/08/04 03:33:11;;;;;;;60.88;27.40;;;;;;;;;;5009231;28;20532;-73
2022/08/04 03:35:55;;;;;;;76.50;29.92;;;;;;;;;;5009072;28;20077;-73
2022/08/04 03:38:41;;;;;;;67.15;28.40;;;;;;;;;;5009087;28;20489;-73
2022/08/04 03:41:40;;;;;;;67.03;28.55;;;;;;;;;;4990981;28;20065;-73
2022/08/04 03:44:48;;;;;;;65.93;29.10;;;;;;;;;;5009055;28;20050;-73
2022/08/04 03:47:43;;;;;;;72.20;29.40;;;;;;;;;;5008891;28;20501;-73
2022/08/04 03:50:39;;;;;;;61.75;28.25;;;;;;;;;;5008537;28;20121;-73
2022/08/04 03:53:39;;;;;;;73.35;29.20;;;;;;;;;;4981687;28;20084;-73
2022/08/04 03:56:15;;;;;;;;;;;;;;;;;;5009558;28;20408;-73
2022/08/04 03:59:02;;;;;;;61.55;24.92;;;;;;;;;;5008387;28;19928;-73
2022/08/04 04:02:04;;;;;;;66.78;26.42;;;;;;;;;;5008888;28;20049;-73
2022/08/04 04:04:46;;;;;;;71.57;27.05;;;;;;;;;;5009000;28;20045;-73
2022/08/04 04:07:37;;;;;;;63.75;27.52;;;;;;;;;;5008651;28;20525;-73
2022/08/04 04:10:19;;;;;;;63.15;25.30;;;;;;;;;;4993090;28;20042;-73
2022/08/04 04:13:12;;;;;;;67.95;27.33;;;;;;;;;;5007993;28;20056;-73
2022/08/04 04:16:07;;;;;;;59.90;26.55;;;;;;;;;;5007924;28;20056;-73
2022/08/04 04:18:42;;;;;;;57.30;26.75;;;;;;;;;;5007779;28;20042;-73
2022/08/04 04:21:33;;;;;;;58.70;27.00;;;;;;;;;;5008565;28;20053;-73
2022/08/04 04:24:16;;;;;;;52.08;24.65;;;;;;;;;;5008519;28;20045;-73
2022/08/04 04:26:51;;;;;;;60.15;27.17;;;;;;;;;;5008564;28;20048;-73
2022/08/04 04:29:46;;;;;;;64.13;26.83;;;;;;;;;;5008445;28;20049;-73
2022/08/04 04:32:33;;;;;;;;;;;;;;;;;;5008523;28;20405;-74
2022/08/04 04:35:22;;;;;;;62.47;28.05;;;;;;;;;;5007992;28;19925;-73
2022/08/04 04:38:17;;;;;;;69.03;28.35;;;;;;;;;;5007424;28;20038;-73
2022/08/04 04:41:04;;;;;;;65.75;28.88;;;;;;;;;;5008244;28;20405;-73
2022/08/04 04:43:34;;;;;;;70.88;31.40;;;;;;;;;;5008243;28;20378;-73
2022/08/04 04:46:42;;;;;;;72.25;31.90;;;;;;;;;;4989968;28;20532;-73
2022/08/04 04:49:25;;;;;;;73.63;32.22;;;;;;;;;;5007273;28;20061;-73
2022/08/04 04:52:03;;;;;;;67.05;27.88;;;;;;;;;;4990666;28;20042;-73
2022/08/04 04:54:53;;;;;;;60.88;26.92;;;;;;;;;;5007501;28;20033;-73
2022/08/04 04:57:28;;;;;;;68.40;27.85;;;;;;;;;;5007863;28;20053;-73
2022/08/04 05:00:20;;;;;;;58.78;27.55;;;;;;;;;;5007143;28;20409;-73
2022/08/04 05:03:09;;;;;;;68.63;29.15;;;;;;;;;;5007721;28;20604;-73
2022/08/04 05:05:56;;;;;;;;;;;;;;;;;;5008485;28;20046;-73
2022/08/04 05:08:42;;;;;;;73.20;28.30;;;;;;;;;;5007845;28;20368;-74
2022/08/04 05:11:25;;;;;;;67.47;29.45;;;;;;;;;;5007303;28;20038;-73
2022/08/04 05:14:03;;;;;;;61.58;28.33;;;;;;;;;;5007032;28;20050;-73
2022/08/04 05:17:05;;;;;;;58.90;27.25;;;;;;;;;;5007733;28;20046;-73
2022/08/04 05:20:00;;;;;;;66.78;29.83;;;;;;;;;;5007278;28;20049;-73
2022/08/04 05:22:39;;;;;;;70.88;30.42;;;;;;;;;;5007690;28;20046;-73
2022/08/04 05:25:30;;;;;;;68.68;29.13;;;;;;;;;;5007210;28;20058;-73
2022/08/04 05:28:07;;;;;;;66.47;28.77;;;;;;;;;;5006616;28;20612;-73
2022/08/04 05:30:50;;;;;;;78.28;31.63;;;;;;;;;;5007763;28;20045;-73
2022/08/04 05:33:26;;;;;;;71.10;29.20;;;;;;;;;;5007138;28;20042;-73
2022/08/04 05:36:05;;;;;;;84.50;31.33;;;;;;;;;;5007304;28;20046;-73
2022/08/04 05:39:00;;;;;;;79.60;31.08;;;;;;;;;;5006786;28;20068;-73
2022/08/04 05:41:32;;;;;;;86.38;31.85;;;;;;;;;;5007261;28;20497;-73
2022/08/04 05:44:20;;;;;;;83.57;32.75;;;;;;;;;;5007129;28;20145;-73
2022/08/04 05:46:54;;;;;;;90.00;32.70;;;;;;;;;;5006989;28;20045;-73
2022/08/04 05:49:26;;;;;;;85.82;31.25;;;;;;;;;;5006981;28;20810;-73
2022/08/04 05:52:00;;;;;;;75.95;30.17;;;;;;;;;;4989727;28;20050;-73
2022/08/04 05:54:34;;;;;;;85.30;32.47;;;;;;;;;;5007106;28;20045;-73
2022/08/04 05:57:07;;;;;;;77.95;31.05;;;;;;;;;;5007043;28;20057;-73
2022/08/04 05:59:41;;;;;;;76.70;31.48;;;;;;;;;;5006366;28;20413;-73
2022/08/04 06:02:14;;;;;;;82.15;30.65;;;;;;;;;;5006823;28;20049;-73
2022/08/04 06:04:49;;;;;;;78.18;30.15;;;;;;;;;;5007327;28;20053;-73
2022/08/04 06:07:19;;;;;;;87.85;34.47;;;;;;;;;;5006898;28;20050;-73
2022/08/04 06:09:51;;;;;;;84.90;32.08;;;;;;;;;;5007123;28;20603;-73
2022/08/04 06:12:27;;;;;;;93.40;33.33;;;;;;;;;;5006648;28;20042;-73
2022/08/04 06:14:59;;;;;;;83.22;32.80;;;;;;;;;;5007391;28;20042;-73
2022/08/04 06:17:37;;;;;;;81.57;31.23;;;;;;;;;;4989892;28;20053;-73
2022/08/04 06:20:31;;;;;;;83.18;30.77;;;;;;;;;;5006301;28;20050;-73
2022/08/04 06:23:12;;;;;;;80.05;31.00;;;;;;;;;;5006649;28;20054;-73
2022/08/04 06:25:53;;;;;;;87.72;31.27;;;;;;;;;;5006997;28;20092;-73
2022/08/04 06:28:25;;;;;;;88.28;31.90;;;;;;;;;;5006681;28;20505;-73
2022/08/04 06:31:01;;;;;;;82.78;32.17;;;;;;;;;;5006044;28;20057;-73
2022/08/04 06:33:52;;;;;;;86.18;31.63;;;;;;;;;;5007367;28;20050;-73
2022/08/04 06:36:23;;;;;;;74.43;30.27;;;;;;;;;;4988272;28;20054;-73
2022/08/04 06:38:54;;;;;;;82.93;32.45;;;;;;;;;;5009200;28;20057;-73
2022/08/04 06:41:28;;;;;;;79.90;31.88;;;;;;;;;;5010038;28;20042;-73
2022/08/04 06:44:02;;;;;;;74.60;30.92;;;;;;;;;;5009972;28;20054;-73
2022/08/04 06:46:35;;;;;;;73.47;29.77;;;;;;;;;;4992941;28;20053;-74
2022/08/04 06:49:07;;;;;;;76.93;31.55;;;;;;;;;;5009445;28;20048;-73
2022/08/04 06:51:39;;;;;;;73.88;29.05;;;;;;;;;;5009336;28;20045;-73
2022/08/04 06:54:17;;;;;;;67.03;27.02;;;;;;;;;;5010009;28;20387;-73
2022/08/04 06:56:48;;;;;;;71.25;30.13;;;;;;;;;;5009703;28;20046;-73
2022/08/04 06:59:21;;;;;;;72.32;31.02;;;;;;;;;;5010020;28;20520;-73
2022/08/04 07:01:52;;;;;;;96.95;33.50;;;;;;;;;;5009440;28;20046;-73
2022/08/04 07:04:22;;;;;;;77.88;29.70;;;;;;;;;;5010615;28;20057;-73
2022/08/04 07:06:52;;;;;;;79.50;30.42;;;;;;;;;;4991720;28;20619;-73
2022/08/04 07:09:22;;;;;;;90.68;34.33;;;;;;;;;;4991882;28;20078;-74
2022/08/04 07:11:53;;;;;;;84.68;32.08;;;;;;;;;;5009829;28;20061;-75
2022/08/04 07:14:26;;;;;;;90.72;32.42;;;;;;;;;;5009531;28;20050;-73
2022/08/04 07:16:57;;;;;;;85.88;32.83;;;;;;;;;;5009348;28;20045;-73
2022/08/04 07:19:27;;;;;;;96.22;37.05;;;;;;;;;;5009364;28;20050;-73
2022/08/04 07:22:01;;;;;;;78.18;30.65;;;;;;;;;;5009334;28;20046;-73
2022/08/04 07:24:54;;;;;;;;;;;;;;;;;;5009592;28;20861;-73
2022/08/04 07:27:25;;;;;;;95.20;33.40;;;;;;;;;;4991580;28;19921;-73
2022/08/04 07:30:17;;;;;;;98.07;33.63;;;;;;;;;;5009747;28;20049;-73
2022/08/04 07:32:53;;;;;;;113.72;38.63;;;;;;;;;;5008825;28;20067;-73
2022/08/04 07:35:26;;;;;;;105.95;35.05;;;;;;;;;;5009185;28;20042;-73
2022/08/04 07:38:16;;;;;;;99.63;34.10;;;;;;;;;;5011032;28;20417;-74
2022/08/04 07:40:56;;;;;;;84.25;28.25;;;;;;;;;;5012088;28;20054;-74
2022/08/04 07:43:26;;;;;;;73.68;27.15;;;;;;;;;;5008611;28;20054;-74
2022/08/04 07:45:56;;;;;;;75.22;26.95;;;;;;;;;;5008409;28;20054;-74
2022/08/04 07:48:26;;;;;;;77.13;29.02;;;;;;;;;;5009142;28;20052;-74
2022/08/04 07:50:58;;;;;;;74.22;26.95;;;;;;;;;;5007252;28;20057;-74
2022/08/04 07:53:28;;;;;;;70.22;26.08;;;;;;;;;;5009457;28;20049;-74
2022/08/04 07:56:19;;;;;;;62.05;23.67;;;;;;;;;;5009251;28;20481;-73
2022/08/04 07:58:48;;;;;;;47.05;20.40;;;;;;;;;;5008501;28;20060;-76
2022/08/04 08:01:22;;;;;;;60.67;22.38;;;;;;;;;;5008192;28;20054;-74
2022/08/04 08:03:55;;;;;;;56.60;22.15;;;;;;;;;;5008416;28;20046;-73
2022/08/04 08:06:25;;;;;;;48.78;20.23;;;;;;;;;;5007889;28;20603;-74
2022/08/04 08:09:12;;;;;;;45.60;19.50;;;;;;;;;;5008290;28;20057;-73
2022/08/04 08:11:47;;;;;;;45.30;18.40;;;;;;;;;;5008906;28;20049;-73
2022/08/04 08:14:37;;;;;;;41.67;19.77;;;;;;;;;;5009082;28;20045;-74
2022/08/04 08:17:07;;;;;;;49.17;20.88;;;;;;;;;;5008422;28;20046;-74
2022/08/04 08:19:37;;;;;;;61.75;20.50;;;;;;;;;;5008685;28;20053;-74
2022/08/04 08:22:09;;;;;;;48.85;19.90;;;;;;;;;;5008398;28;20045;-73
2022/08/04 08:24:40;;;;;;;43.85;20.58;;;;;;;;;;5008515;28;20053;-76
2022/08/04 08:27:09;;;;;;;36.97;18.77;;;;;;;;;;4989693;28;20054;-73
2022/08/04 08:29:40;;;;;;;38.25;18.30;;;;;;;;;;5007964;28;20050;-73
2022/08/04 08:32:14;;;;;;;35.92;18.17;;;;;;;;;;5008185;28;20042;-74
2022/08/04 08:34:45;;;;;;;39.72;17.58;;;;;;;;;;5008377;28;20052;-73
2022/08/04 08:37:30;;;;;;;34.58;16.00;;;;;;;;;;5007894;28;20037;-74
2022/08/04 08:40:25;;;;;;;36.53;13.32;;;;;;;;;;5007772;28;20054;-73
2022/08/04 08:43:27;;;;;;;26.65;14.00;;;;;;;;;;5008089;28;20053;-74
2022/08/04 08:46:40;;;;;;;32.72;15.13;;;;;;;;;;5007626;28;20073;-74
2022/08/04 08:49:31;;;;;;;26.75;14.15;;;;;;;;;;4988666;28;20416;-75
2022/08/04 08:52:42;;;;;;;27.10;12.82;;;;;;;;;;5007459;28;20046;-72
2022/08/04 08:55:38;;;;;;;28.15;12.23;;;;;;;;;;5007451;28;20053;-72
2022/08/04 08:58:39;;;;;;;21.50;11.45;;;;;;;;;;5007336;28;20045;-71
2022/08/04 09:01:12;;;;;;;26.85;11.68;;;;;;;;;;4990218;28;20714;-73
2022/08/04 09:04:00;;;;;;;34.45;13.07;;;;;;;;;;5007347;28;20528;-73
2022/08/04 09:06:48;;;;;;;25.90;11.07;;;;;;;;;;4989019;28;20432;-73
2022/08/04 09:09:47;;;;;;;20.05;9.77;;;;;;;;;;4989474;28;20536;-72
2022/08/04 09:12:35;;;;;;;19.10;9.85;;;;;;;;;;4989493;28;20045;-73
2022/08/04 09:15:11;;;;;;;;;;;;;;;;;;5007926;28;20038;-72
2022/08/04 09:18:06;;;;;;;22.50;9.93;;;;;;;;;;5007533;28;20001;-72
2022/08/04 09:20:50;;;;;;;25.73;10.05;;;;;;;;;;5007363;28;20060;-73
2022/08/04 09:23:44;;;;;;;27.50;10.55;;;;;;;;;;5007453;28;20038;-73
2022/08/04 09:26:33;;;;;;;21.58;10.38;;;;;;;;;;5006891;28;20041;-72
2022/08/04 09:29:21;;;;;;;27.88;11.95;;;;;;;;;;5007317;28;20047;-73
2022/08/04 09:32:16;;;;;;;23.02;11.73;;;;;;;;;;5007233;28;20056;-76
2022/08/04 09:34:55;;;;;;;22.52;12.02;;;;;;;;;;5007346;28;20048;-73
2022/08/04 09:38:15;;;;;;;30.75;11.23;;;;;;;;;;5006762;28;20525;-74
2022/08/04 09:40:58;;;;;;;29.75;13.30;;;;;;;;;;4927168;29;20047;-73
2022/08/04 09:43:47;;;;;;;28.70;13.73;;;;;;;;;;5001099;28;20053;-73
2022/08/04 09:46:46;;;;;;;32.10;14.25;;;;;;;;;;5006693;28;20045;-73
2022/08/04 09:49:39;;;;;;;30.40;14.52;;;;;;;;;;5006009;28;20050;-72
2022/08/04 09:52:45;;;;;;;36.03;15.68;;;;;;;;;;5000129;28;20413;-74
2022/08/04 09:55:45;;;;;;;34.97;14.63;;;;;;;;;;5006715;28;20433;-74
2022/08/04 09:58:40;;;;;;;29.48;14.63;;;;;;;;;;4987329;28;20050;-74
2022/08/04 10:01:15;;;;;;;33.67;15.10;;;;;;;;;;5006439;28;20042;-73
2022/08/04 10:04:03;;;;;;;35.97;16.00;;;;;;;;;;5006712;28;20042;-74
2022/08/04 10:06:45;;;;;;;32.72;14.13;;;;;;;;;;5006801;28;20050;-76
2022/08/04 10:09:48;;;;;;;32.70;15.27;;;;;;;;;;5006845;28;20041;-75
2022/08/04 10:12:24;;;;;;;32.22;14.20;;;;;;;;;;5007347;28;20049;-74
2022/08/04 10:15:18;;;;;;;31.98;15.60;;;;;;;;;;5010617;28;20046;-74
2022/08/04 10:18:10;;;;;;;32.85;15.10;;;;;;;;;;4993497;28;20497;-75
2022/08/04 10:21:00;;;;;;;39.38;17.15;;;;;;;;;;5010616;28;20050;-75
2022/08/04 10:23:57;;;;;;;31.58;14.52;;;;;;;;;;5010590;28;20042;-74
2022/08/04 10:26:51;;;;;;;36.60;15.82;;;;;;;;;;5010251;28;20409;-75
2022/08/04 10:29:36;;;;;;;37.33;16.30;;;;;;;;;;5010458;28;20404;-75
2022/08/04 10:32:24;;;;;;;34.42;15.85;;;;;;;;;;5010345;28;20045;-75
2022/08/04 10:35:01;;;;;;;29.52;14.65;;;;;;;;;;5010143;28;20042;-75
2022/08/04 10:37:40;;;;;;;38.50;16.45;;;;;;;;;;5009693;28;20049;-74
2022/08/04 10:40:58;;;;;;;37.95;16.20;;;;;;;;;;5010474;28;20050;-74
2022/08/04 10:44:02;;;;;;;37.13;16.13;;;;;;;;;;5007954;28;20401;-74
2022/08/04 10:46:39;;;;;;;42.53;16.65;;;;;;;;;;5009982;28;20046;-74
2022/08/04 10:49:33;;;;;;;37.83;17.75;;;;;;;;;;5009157;28;20049;-75
2022/08/04 10:52:28;;;;;;;39.67;18.35;;;;;;;;;;5009780;28;20056;-74
2022/08/04 10:55:19;;;;;;;39.78;17.17;;;;;;;;;;5003226;28;20057;-75
2022/08/04 10:57:58;;;;;;;37.63;16.83;;;;;;;;;;5009323;28;20052;-75
2022/08/04 11:00:32;;;;;;;41.28;18.80;;;;;;;;;;5009704;28;20505;-75
2022/08/04 11:03:08;;;;;;;34.15;16.88;;;;;;;;;;5009757;28;20718;-74
2022/08/04 11:05:58;;;;;;;44.15;17.85;;;;;;;;;;5009330;28;20393;-75
2022/08/04 11:08:34;;;;;;;36.75;17.23;;;;;;;;;;5009319;28;20046;-75
2022/08/04 11:11:13;;;;;;;;;;;;;;;;;;5010456;28;20370;-77
2022/08/04 11:14:02;;;;;;;35.50;15.52;;;;;;;;;;5009549;28;19929;-73
2022/08/04 11:16:50;;;;;;;37.92;15.95;;;;;;;;;;5009941;28;20126;-73
2022/08/04 11:19:51;;;;;;;27.85;14.07;;;;;;;;;;5009449;28;20077;-76
2022/08/04 11:22:49;;;;;;;32.70;16.02;;;;;;;;;;5008979;28;20054;-77
2022/08/04 11:25:23;;;;;;;33.75;17.52;;;;;;;;;;5008923;28;20042;-75
2022/08/04 11:28:15;;;;;;;41.40;19.48;;;;;;;;;;5009507;28;20042;-76
2022/08/04 11:31:01;;;;;;;37.92;18.02;;;;;;;;;;5008862;28;20038;-75
2022/08/04 11:33:54;;;;;;;36.20;17.20;;;;;;;;;;5009105;28;20041;-75
2022/08/04 11:36:59;;;;;;;39.40;18.25;;;;;;;;;;5008778;28;20512;-75
2022/08/04 11:39:48;;;;;;;36.20;17.48;;;;;;;;;;5008701;28;20065;-75
2022/08/04 11:42:29;;;;;;;36.55;15.95;;;;;;;;;;5009305;28;20048;-76
2022/08/04 11:45:03;;;;;;;40.63;18.25;;;;;;;;;;5008960;28;20045;-75
2022/08/04 11:47:38;;;;;;;41.03;18.52;;;;;;;;;;5008348;28;20054;-75
2022/08/04 11:50:26;;;;;;;38.28;18.38;;;;;;;;;;5008585;28;20057;-76
2022/08/04 11:52:58;;;;;;;33.92;17.23;;;;;;;;;;5008741;28;20046;-74
2022/08/04 11:55:30;;;;;;;41.50;18.73;;;;;;;;;;5008706;28;20144;-73
2022/08/04 11:58:20;;;;;;;32.53;15.85;;;;;;;;;;5009508;28;20056;-74
2022/08/04 12:01:06;;;;;;;38.60;17.35;;;;;;;;;;5009527;28;20042;-74
2022/08/04 12:03:56;;;;;;;38.20;17.27;;;;;;;;;;5010034;28;20049;-73
2022/08/04 12:06:42;;;;;;;36.17;18.38;;;;;;;;;;5008525;28;20042;-73
2022/08/04 12:10:15;;;;;;;30.92;15.85;;;;;;;;;;5008542;28;20050;-72
2022/08/04 12:13:23;;;;;;;30.38;15.70;;;;;;;;;;5009161;28;20041;-73
2022/08/04 12:15:52;;;;;;;;;;;;;;;;;;5009537;28;20413;-73
2022/08/04 12:18:41;;;;;;;33.85;17.80;;;;;;;;;;5007920;28;19929;-74
2022/08/04 12:21:38;;;;;;;32.15;16.55;;;;;;;;;;5008333;28;20377;-74
2022/08/04 12:24:25;;;;;;;34.90;16.88;;;;;;;;;;5008425;28;20046;-73
2022/08/04 12:27:45;;;;;;;44.83;18.33;;;;;;;;;;5007619;28;20053;-73
2022/08/04 12:30:18;;;;;;;30.42;15.65;;;;;;;;;;4947356;28;20054;-74
2022/08/04 12:33:14;;;;;;;34.00;16.83;;;;;;;;;;4947864;29;20054;-73
2022/08/04 12:36:01;;;;;;;30.88;15.70;;;;;;;;;;4992343;28;20054;-76
2022/08/04 12:38:48;;;;;;;33.20;16.23;;;;;;;;;;5007329;28;20050;-74
2022/08/04 12:41:23;;;;;;;30.77;15.73;;;;;;;;;;5007441;28;20045;-74
2022/08/04 12:43:54;;;;;;;38.30;17.90;;;;;;;;;;5007829;28;20058;-74
2022/08/04 12:46:27;;;;;;;39.47;18.08;;;;;;;;;;5007600;28;20552;-74
2022/08/04 12:49:02;;;;;;;36.42;16.88;;;;;;;;;;5008398;28;20592;-73
2022/08/04 12:51:41;;;;;;;37.50;18.73;;;;;;;;;;5008207;28;20046;-73
2022/08/04 12:54:35;;;;;;;34.17;16.55;;;;;;;;;;5007723;28;20401;-74
2022/08/04 12:57:07;;;;;;;28.98;14.35;;;;;;;;;;5007822;28;20045;-73
2022/08/04 12:59:56;;;;;;;37.78;17.15;;;;;;;;;;5007549;28;20516;-74
2022/08/04 13:02:33;;;;;;;35.40;16.35;;;;;;;;;;5007377;28;20554;-74
2022/08/04 13:05:06;;;;;;;31.27;15.85;;;;;;;;;;5007953;28;20057;-74
2022/08/04 13:07:41;;;;;;;29.10;14.30;;;;;;;;;;5007556;28;20038;-73
2022/08/04 13:10:14;;;;;;;29.88;13.70;;;;;;;;;;5007753;28;20042;-75
2022/08/04 13:12:58;;;;;;;25.85;13.73;;;;;;;;;;5007877;28;20056;-73
2022/08/04 13:15:29;;;;;;;27.38;12.90;;;;;;;;;;5007518;28;20057;-74
2022/08/04 13:18:09;;;;;;;26.75;14.50;;;;;;;;;;5007552;28;20405;-73
2022/08/04 13:20:44;;;;;;;27.55;12.32;;;;;;;;;;5007344;28;20053;-73
2022/08/04 13:23:18;;;;;;;32.17;14.75;;;;;;;;;;5007130;28;20409;-73
2022/08/04 13:26:09;;;;;;;32.15;13.93;;;;;;;;;;5007220;28;20045;-73
2022/08/04 13:29:02;;;;;;;29.50;11.98;;;;;;;;;;5007448;28;20065;-74
2022/08/04 13:31:46;;;;;;;24.27;11.65;;;;;;;;;;4988957;28;20061;-75
2022/08/04 13:34:21;;;;;;;22.73;10.48;;;;;;;;;;5007389;28;20050;-74
2022/08/04 13:36:55;;;;;;;17.08;8.27;;;;;;;;;;5006676;28;20509;-75
2022/08/04 13:39:26;;;;;;;16.63;8.40;;;;;;;;;;5005666;28;20053;-79
2022/08/04 13:42:01;;;;;;;22.10;9.70;;;;;;;;;;5007043;28;20049;-73
2022/08/04 13:44:35;;;;;;;20.00;9.20;;;;;;;;;;5006126;28;20053;-74
2022/08/04 13:47:09;;;;;;;14.90;7.00;;;;;;;;;;5007119;28;20397;-75
2022/08/04 13:50:02;;;;;;;11.10;6.35;;;;;;;;;;5010406;28;20507;-74
2022/08/04 13:52:41;;;;;;;15.82;7.95;;;;;;;;;;5011227;28;20056;-74
2022/08/04 13:55:19;;;;;;;13.65;6.78;;;;;;;;;;5011120;28;20050;-74
2022/08/04 13:57:55;;;;;;;16.13;7.72;;;;;;;;;;5011246;28;20064;-76
2022/08/04 14:00:28;;;;;;;10.57;5.05;;;;;;;;;;5010667;28;20061;-75
2022/08/04 14:03:05;;;;;;;13.20;6.03;;;;;;;;;;5010772;28;20054;-76
2022/08/04 14:06:13;;;;;;;10.05;5.38;;;;;;;;;;5010930;28;20517;-75
2022/08/04 14:08:58;;;;;;;9.95;4.97;;;;;;;;;;4993564;28;20049;-75
2022/08/04 14:11:34;;;;;;;12.80;4.90;;;;;;;;;;5011234;28;20038;-74
2022/08/04 14:14:32;;;;;;;8.18;4.47;;;;;;;;;;5010770;28;20050;-73
2022/08/04 14:17:11;;;;;;;12.55;4.90;;;;;;;;;;5010292;28;20053;-73
2022/08/04 14:19:51;;;;;;;7.43;4.50;;;;;;;;;;5010079;28;20042;-73
2022/08/04 14:22:27;;;;;;;14.55;6.10;;;;;;;;;;5010493;28;20832;-73
2022/08/04 14:25:12;;;;;;;8.43;3.17;;;;;;;;;;5010424;28;20341;-74
2022/08/04 14:27:50;;;;;;;5.43;3.20;;;;;;;;;;5010407;28;20057;-75
2022/08/04 14:30:34;;;;;;;4.20;2.20;;;;;;;;;;5010262;28;20515;-73
2022/08/04 14:33:08;;;;;;;5.03;2.80;;;;;;;;;;4992165;28;20517;-75
2022/08/04 14:35:59;;;;;;;3.03;2.00;;;;;;;;;;5009913;28;20501;-73
2022/08/04 14:38:47;;;;;;;3.53;2.10;;;;;;;;;;5009975;28;20521;-75
2022/08/04 14:41:21;;;;;;;3.30;1.63;;;;;;;;;;5010521;28;20042;-75
2022/08/04 14:43:57;;;;;;;2.08;1.30;;;;;;;;;;5010380;28;20046;-74
2022/08/04 14:46:28;;;;;;;3.60;1.52;;;;;;;;;;5009371;28;20073;-74
2022/08/04 14:49:04;;;;;;;5.65;1.77;;;;;;;;;;4991178;28;20049;-74
2022/08/04 14:51:43;;;;;;;3.92;1.58;;;;;;;;;;5009361;28;20052;-74
2022/08/04 14:54:14;;;;;;;3.35;2.20;;;;;;;;;;5009817;28;20520;-73
2022/08/04 14:56:59;;;;;;;3.88;1.40;;;;;;;;;;5009587;28;20057;-73
2022/08/04 14:59:42;;;;;;;3.17;1.42;;;;;;;;;;5008985;28;20057;-75
2022/08/04 15:02:31;;;;;;;2.22;1.45;;;;;;;;;;5008774;28;20081;-74
2022/08/04 15:05:02;;;;;;;3.10;1.58;;;;;;;;;;5009004;28;20052;-75
2022/08/04 15:07:52;;;;;;;3.95;1.58;;;;;;;;;;5009839;28;20508;-73
2022/08/04 15:10:23;;;;;;;3.28;1.13;;;;;;;;;;5009716;28;20401;-74
2022/08/04 15:12:54;;;;;;;6.28;1.35;;;;;;;;;;5009728;28;20045;-74
2022/08/04 15:15:24;;;;;;;2.17;1.50;;;;;;;;;;4991939;28;20045;-74
2022/08/04 15:18:08;;;;;;;2.90;1.65;;;;;;;;;;5008934;28;20049;-74
2022/08/04 15:20:41;;;;;;;4.82;2.60;;;;;;;;;;5009630;28;20397;-76
2022/08/04 15:23:11;;;;;;;2.95;1.50;;;;;;;;;;5008752;28;20118;-75
2022/08/04 15:25:46;;;;;;;3.33;1.17;;;;;;;;;;5008722;28;20052;-74
2022/08/04 15:28:23;;;;;;;2.05;1.30;;;;;;;;;;5008379;28;20042;-75
2022/08/04 15:30:55;;;;;;;1.38;1.27;;;;;;;;;;5008179;28;20061;-74
2022/08/04 15:33:27;;;;;;;3.33;1.63;;;;;;;;;;5008255;28;20053;-73
2022/08/04 15:36:34;;;;;;;3.53;1.50;;;;;;;;;;5008692;28;20057;-74
2022/08/04 15:39:26;;;;;;;2.63;1.50;;;;;;;;;;5008347;28;20525;-74
2022/08/04 15:42:14;;;;;;;2.35;1.42;;;;;;;;;;5009138;28;20054;-74
2022/08/04 15:45:21;;;;;;;2.75;1.40;;;;;;;;;;5008564;28;20409;-74
2022/08/04 15:48:11;;;;;;;2.63;1.50;;;;;;;;;;5008734;28;20046;-74
2022/08/04 15:50:58;;;;;;;2.75;1.52;;;;;;;;;;5008987;28;20069;-74
2022/08/04 15:53:38;;;;;;;2.97;1.63;;;;;;;;;;5008494;28;20046;-74
2022/08/04 15:56:28;;;;;;;2.95;1.70;;;;;;;;;;5008744;28;20052;-74